Time;durP1;ratioP1;P1;durP2;ratioP2;P2;SDS_P1;SDS_P2;PMS_P1;PMS_P2;Temp;Humidity;BMP_temperature;BMP_pressure;BME280_temperature;BME280_humidity;BME280_pressure;Samples;Min_cycle;Max_cycle;Signal;HPM_P1;HPM_P2
2022/07/13 00:00:45;;;;;;;0.90;0.90;;;;;;;;;;1879223;75;26237;-49
2022/07/13 00:03:13;;;;;;;0.70;0.70;;;;;;;;;;1875030;75;26265;-46
2022/07/13 00:05:40;;;;;;;0.70;0.70;;;;;;;;;;1880272;75;26256;-47
2022/07/13 00:08:07;;;;;;;0.88;0.88;;;;;;;;;;1880167;75;26182;-50
2022/07/13 00:10:34;;;;;;;0.70;0.70;;;;;;;;;;1869942;75;26281;-52
2022/07/13 00:13:02;;;;;;;0.70;0.70;;;;;;;;;;1872753;75;26221;-48
2022/07/13 00:15:29;;;;;;;0.88;0.88;;;;;;;;;;1875000;75;26236;-48
2022/07/13 00:17:56;;;;;;;0.93;0.90;;;;;;;;;;1875851;75;26688;-50
2022/07/13 00:20:23;;;;;;;0.80;0.80;;;;;;;;;;1873622;75;27040;-45
2022/07/13 00:22:51;;;;;;;0.70;0.70;;;;;;;;;;1865404;75;26332;-47
2022/07/13 00:25:18;;;;;;;0.80;0.80;;;;;;;;;;1876187;75;26222;-46
2022/07/13 00:27:45;;;;;;;0.80;0.80;;;;;;;;;;1878439;75;26198;-47
2022/07/13 00:30:12;;;;;;;0.80;0.80;;;;;;;;;;1873525;75;26296;-54
2022/07/13 00:32:40;;;;;;;0.70;0.70;;;;;;;;;;1878576;75;26797;-50
2022/07/13 00:35:07;;;;;;;1.45;0.95;;;;;;;;;;1875620;75;26754;-49
2022/07/13 00:37:34;;;;;;;0.85;0.85;;;;;;;;;;1853004;75;26256;-44
2022/07/13 00:40:02;;;;;;;0.70;0.70;;;;;;;;;;1875778;75;26567;-43
2022/07/13 00:42:29;;;;;;;0.72;0.60;;;;;;;;;;1869318;75;26217;-50
2022/07/13 00:44:56;;;;;;;0.80;0.80;;;;;;;;;;1869867;75;26266;-48
2022/07/13 00:47:24;;;;;;;0.80;0.80;;;;;;;;;;1876370;75;26237;-47
2022/07/13 00:49:51;;;;;;;0.70;0.70;;;;;;;;;;1878938;75;26288;-48
2022/07/13 00:52:19;;;;;;;0.72;0.72;;;;;;;;;;1867101;75;26234;-46
2022/07/13 00:54:46;;;;;;;0.68;0.68;;;;;;;;;;1876357;75;26195;-47
2022/07/13 00:57:14;;;;;;;0.70;0.70;;;;;;;;;;1877428;76;26535;-45
2022/07/13 00:59:42;;;;;;;1.37;0.80;;;;;;;;;;1881870;76;26602;-54
2022/07/13 01:02:09;;;;;;;0.85;0.70;;;;;;;;;;1875509;75;26658;-47
2022/07/13 01:04:36;;;;;;;1.17;0.70;;;;;;;;;;1875197;75;26200;-48
2022/07/13 01:07:04;;;;;;;0.70;0.70;;;;;;;;;;1867669;75;26268;-47
2022/07/13 01:09:32;;;;;;;0.80;0.80;;;;;;;;;;1869534;75;26295;-45
2022/07/13 01:11:59;;;;;;;0.80;0.80;;;;;;;;;;1876523;75;26337;-48
2022/07/13 01:14:29;;;;;;;0.78;0.78;;;;;;;;;;1859244;75;26350;-50
2022/07/13 01:16:56;;;;;;;0.70;0.70;;;;;;;;;;1874990;75;26296;-48
2022/07/13 01:19:24;;;;;;;0.70;0.70;;;;;;;;;;1871828;74;26759;-45
2022/07/13 01:21:52;;;;;;;0.80;0.80;;;;;;;;;;1875690;75;26272;-45
2022/07/13 01:24:20;;;;;;;0.72;0.72;;;;;;;;;;1875219;75;26202;-55
2022/07/13 01:26:49;;;;;;;0.75;0.75;;;;;;;;;;1878016;75;26666;-43
2022/07/13 01:29:16;;;;;;;0.90;0.90;;;;;;;;;;1881548;75;26197;-47
2022/07/13 01:31:43;;;;;;;0.70;0.70;;;;;;;;;;1860218;75;26649;-46
2022/07/13 01:34:10;;;;;;;0.75;0.75;;;;;;;;;;1871118;76;27031;-48
2022/07/13 01:36:38;;;;;;;0.93;0.90;;;;;;;;;;1861675;74;26217;-47
2022/07/13 01:39:06;;;;;;;0.90;0.90;;;;;;;;;;1860088;76;27188;-46
2022/07/13 01:41:33;;;;;;;0.93;0.93;;;;;;;;;;1863124;75;26202;-51
2022/07/13 01:44:00;;;;;;;1.20;1.10;;;;;;;;;;1862700;75;26669;-44
2022/07/13 01:46:29;;;;;;;1.05;1.05;;;;;;;;;;1860924;76;26223;-42
2022/07/13 01:48:57;;;;;;;0.85;0.85;;;;;;;;;;1877480;75;26210;-45
2022/07/13 01:51:24;;;;;;;0.90;0.90;;;;;;;;;;1874309;75;26577;-46
2022/07/13 01:53:51;;;;;;;1.00;1.00;;;;;;;;;;1877643;76;26279;-44
2022/07/13 01:56:19;;;;;;;1.00;1.00;;;;;;;;;;1877475;75;26269;-46
2022/07/13 01:58:46;;;;;;;0.90;0.90;;;;;;;;;;1876880;75;26245;-49
2022/07/13 02:01:13;;;;;;;0.85;0.85;;;;;;;;;;1866471;75;26230;-51
2022/07/13 02:03:40;;;;;;;0.90;0.90;;;;;;;;;;1878903;75;26217;-48
2022/07/13 02:06:08;;;;;;;0.80;0.80;;;;;;;;;;1881604;75;26209;-53
2022/07/13 02:08:35;;;;;;;0.98;0.98;;;;;;;;;;1880606;75;26638;-42
2022/07/13 02:11:02;;;;;;;1.80;1.00;;;;;;;;;;1877232;75;26719;-47
2022/07/13 02:13:30;;;;;;;1.10;1.10;;;;;;;;;;1869519;75;26649;-53
2022/07/13 02:15:57;;;;;;;0.80;0.80;;;;;;;;;;1875183;75;26182;-50
2022/07/13 02:18:25;;;;;;;1.05;0.93;;;;;;;;;;1877855;75;26489;-48
2022/07/13 02:20:52;;;;;;;0.90;0.90;;;;;;;;;;1879199;75;26284;-46
2022/07/13 02:23:21;;;;;;;0.90;0.90;;;;;;;;;;1877766;75;26237;-49
2022/07/13 02:25:48;;;;;;;0.90;0.90;;;;;;;;;;1868148;75;26222;-49
2022/07/13 02:28:15;;;;;;;0.90;0.90;;;;;;;;;;1876131;75;26189;-44
2022/07/13 02:30:42;;;;;;;1.62;0.80;;;;;;;;;;1859245;75;26282;-51
2022/07/13 02:33:11;;;;;;;0.80;0.80;;;;;;;;;;1863529;75;26217;-47
2022/07/13 02:35:38;;;;;;;0.90;0.90;;;;;;;;;;1861926;75;26264;-49
2022/07/13 02:38:06;;;;;;;0.80;0.80;;;;;;;;;;1866832;75;26192;-47
2022/07/13 02:40:33;;;;;;;1.72;1.00;;;;;;;;;;1874283;75;26276;-43
2022/07/13 02:43:01;;;;;;;1.00;1.00;;;;;;;;;;1871349;75;26268;-51
2022/07/13 02:45:28;;;;;;;0.90;0.90;;;;;;;;;;1868466;75;26225;-42
2022/07/13 02:47:55;;;;;;;0.80;0.80;;;;;;;;;;1874255;75;26189;-47
2022/07/13 02:50:22;;;;;;;1.00;1.00;;;;;;;;;;1869841;75;26172;-47
2022/07/13 02:52:51;;;;;;;0.82;0.82;;;;;;;;;;1878936;75;26199;-43
2022/07/13 02:55:19;;;;;;;1.22;1.05;;;;;;;;;;1877584;75;26234;-54
2022/07/13 02:57:46;;;;;;;0.88;0.88;;;;;;;;;;1869679;75;26249;-41
2022/07/13 03:00:14;;;;;;;1.00;1.00;;;;;;;;;;1872545;75;26174;-48
2022/07/13 03:02:41;;;;;;;0.90;0.90;;;;;;;;;;1869578;75;26194;-45
2022/07/13 03:05:09;;;;;;;1.05;1.05;;;;;;;;;;1876752;75;26985;-48
2022/07/13 03:07:36;;;;;;;0.90;0.90;;;;;;;;;;1876119;75;26263;-43
2022/07/13 03:10:03;;;;;;;1.10;1.00;;;;;;;;;;1875409;75;26555;-46
2022/07/13 03:12:31;;;;;;;1.00;1.00;;;;;;;;;;1871933;75;26237;-49
2022/07/13 03:14:59;;;;;;;0.90;0.90;;;;;;;;;;1878808;75;26202;-48
2022/07/13 03:17:26;;;;;;;1.05;1.00;;;;;;;;;;1871813;75;26314;-45
2022/07/13 03:19:53;;;;;;;1.00;1.00;;;;;;;;;;1877322;75;26250;-55
2022/07/13 03:22:20;;;;;;;1.20;1.10;;;;;;;;;;1873057;75;26232;-46
2022/07/13 03:24:48;;;;;;;0.98;0.95;;;;;;;;;;1875621;75;26202;-45
2022/07/13 03:27:15;;;;;;;0.90;0.90;;;;;;;;;;1868301;75;26194;-47
2022/07/13 03:29:42;;;;;;;0.93;0.93;;;;;;;;;;1877072;75;26194;-47
2022/07/13 03:32:09;;;;;;;1.00;1.00;;;;;;;;;;1875148;75;26225;-45
2022/07/13 03:34:37;;;;;;;0.90;0.90;;;;;;;;;;1878275;75;26269;-45
2022/07/13 03:37:04;;;;;;;0.90;0.90;;;;;;;;;;1874689;75;26586;-50
2022/07/13 03:39:32;;;;;;;1.00;1.00;;;;;;;;;;1865704;75;26730;-41
2022/07/13 03:41:59;;;;;;;1.00;1.00;;;;;;;;;;1868086;76;26222;-47
2022/07/13 03:44:26;;;;;;;0.98;0.95;;;;;;;;;;1868876;75;26264;-46
2022/07/13 03:46:54;;;;;;;1.00;1.00;;;;;;;;;;1864403;75;26278;-46
2022/07/13 03:49:21;;;;;;;0.90;0.90;;;;;;;;;;1875272;75;26210;-45
2022/07/13 03:51:48;;;;;;;0.90;0.90;;;;;;;;;;1874787;75;26226;-48
2022/07/13 03:54:15;;;;;;;1.17;1.10;;;;;;;;;;1879532;75;26713;-48
2022/07/13 03:56:43;;;;;;;1.00;1.00;;;;;;;;;;1879752;75;26265;-43
2022/07/13 03:59:10;;;;;;;0.90;0.90;;;;;;;;;;1879666;75;27087;-45
2022/07/13 04:01:37;;;;;;;1.75;1.17;;;;;;;;;;1879321;74;26728;-47
2022/07/13 04:04:05;;;;;;;1.00;0.90;;;;;;;;;;1880803;75;27001;-41
2022/07/13 04:06:32;;;;;;;1.00;1.00;;;;;;;;;;1878582;75;26213;-49
2022/07/13 04:09:00;;;;;;;1.10;1.10;;;;;;;;;;1872534;75;26252;-48
2022/07/13 04:11:27;;;;;;;1.00;1.00;;;;;;;;;;1877521;75;26838;-48
2022/07/13 04:13:54;;;;;;;0.98;0.95;;;;;;;;;;1870799;76;27070;-48
2022/07/13 04:16:21;;;;;;;1.00;1.00;;;;;;;;;;1868747;75;26207;-47
2022/07/13 04:18:49;;;;;;;1.25;1.15;;;;;;;;;;1866186;75;26212;-49
2022/07/13 04:21:16;;;;;;;1.55;1.00;;;;;;;;;;1869915;75;26288;-46
2022/07/13 04:23:43;;;;;;;1.20;1.10;;;;;;;;;;1864496;75;26290;-44
2022/07/13 04:26:10;;;;;;;0.90;0.90;;;;;;;;;;1865411;76;26686;-47
2022/07/13 04:28:38;;;;;;;0.90;0.90;;;;;;;;;;1864506;75;26662;-50
2022/07/13 04:31:05;;;;;;;1.10;1.10;;;;;;;;;;1862107;75;26701;-51
2022/07/13 04:33:32;;;;;;;1.07;1.07;;;;;;;;;;1858152;75;26323;-49
2022/07/13 04:36:00;;;;;;;1.00;1.00;;;;;;;;;;1860211;75;26244;-52
2022/07/13 04:38:27;;;;;;;1.12;1.02;;;;;;;;;;1865678;75;26209;-43
2022/07/13 04:40:54;;;;;;;0.93;0.93;;;;;;;;;;1868933;76;26281;-44
2022/07/13 04:43:21;;;;;;;1.05;1.05;;;;;;;;;;1859559;75;26229;-45
2022/07/13 04:45:49;;;;;;;1.52;1.10;;;;;;;;;;1863082;75;26214;-48
2022/07/13 04:48:17;;;;;;;0.95;0.95;;;;;;;;;;1866849;75;26243;-49
2022/07/13 04:50:45;;;;;;;1.40;1.00;;;;;;;;;;1853897;76;26303;-47
2022/07/13 04:53:12;;;;;;;1.20;1.10;;;;;;;;;;1855439;75;26324;-52
2022/07/13 04:55:39;;;;;;;1.30;1.20;;;;;;;;;;1851825;75;26965;-50
2022/07/13 04:58:07;;;;;;;1.25;1.20;;;;;;;;;;1850937;76;26808;-47
2022/07/13 05:00:37;;;;;;;0.93;0.93;;;;;;;;;;1862824;76;26243;-52
2022/07/13 05:03:04;;;;;;;1.67;1.17;;;;;;;;;;1864573;76;26640;-48
2022/07/13 05:05:32;;;;;;;1.10;1.00;;;;;;;;;;1867871;75;26819;-50
2022/07/13 05:08:00;;;;;;;1.35;1.25;;;;;;;;;;1872231;75;26696;-54
2022/07/13 05:10:28;;;;;;;1.00;1.00;;;;;;;;;;1862940;75;26203;-44
2022/07/13 05:12:55;;;;;;;3.27;1.20;;;;;;;;;;1865299;75;26760;-46
2022/07/13 05:15:23;;;;;;;1.07;1.00;;;;;;;;;;1865036;76;26205;-50
2022/07/13 05:17:50;;;;;;;1.17;1.07;;;;;;;;;;1863573;75;26314;-46
2022/07/13 05:20:17;;;;;;;1.45;1.15;;;;;;;;;;1874708;75;26346;-52
2022/07/13 05:22:44;;;;;;;1.42;1.02;;;;;;;;;;1870310;75;26476;-49
2022/07/13 05:25:12;;;;;;;1.20;1.02;;;;;;;;;;1857288;75;26751;-58
2022/07/13 05:27:39;;;;;;;1.65;1.12;;;;;;;;;;1869364;75;26240;-47
2022/07/13 05:30:07;;;;;;;1.60;1.30;;;;;;;;;;1859518;75;26279;-44
2022/07/13 05:32:34;;;;;;;1.45;1.20;;;;;;;;;;1858566;75;26240;-45
2022/07/13 05:35:01;;;;;;;1.52;1.37;;;;;;;;;;1867861;75;26302;-43
2022/07/13 05:37:29;;;;;;;2.20;1.52;;;;;;;;;;1863741;75;26237;-52
2022/07/13 05:39:56;;;;;;;1.87;1.40;;;;;;;;;;1870822;75;26201;-44
2022/07/13 05:42:23;;;;;;;2.75;1.30;;;;;;;;;;1870580;75;26307;-45
2022/07/13 05:44:51;;;;;;;2.62;1.30;;;;;;;;;;1870950;75;26194;-62
2022/07/13 05:47:18;;;;;;;2.77;1.45;;;;;;;;;;1864964;74;26338;-47
2022/07/13 05:49:45;;;;;;;3.35;1.40;;;;;;;;;;1863036;74;26205;-52
2022/07/13 05:52:13;;;;;;;1.45;1.35;;;;;;;;;;1861843;74;26780;-59
2022/07/13 05:54:40;;;;;;;1.40;1.30;;;;;;;;;;1864853;74;26288;-50
2022/07/13 05:57:08;;;;;;;2.55;1.20;;;;;;;;;;1870448;75;26205;-46
2022/07/13 05:59:35;;;;;;;2.08;1.20;;;;;;;;;;1867351;74;26791;-54
2022/07/13 06:02:02;;;;;;;1.65;1.35;;;;;;;;;;1865984;75;26987;-43
2022/07/13 06:04:29;;;;;;;1.57;1.30;;;;;;;;;;1862064;75;26291;-51
2022/07/13 06:06:57;;;;;;;2.20;1.50;;;;;;;;;;1868962;75;26202;-47
2022/07/13 06:09:24;;;;;;;2.00;1.25;;;;;;;;;;1861347;75;26291;-47
2022/07/13 06:11:51;;;;;;;1.77;1.50;;;;;;;;;;1861071;75;26213;-61
2022/07/13 06:14:19;;;;;;;2.12;1.40;;;;;;;;;;1866882;74;26311;-48
2022/07/13 06:16:46;;;;;;;1.37;1.27;;;;;;;;;;1864753;75;26228;-46
2022/07/13 06:19:13;;;;;;;7.28;1.75;;;;;;;;;;1875234;75;27071;-63
2022/07/13 06:21:40;;;;;;;1.77;1.50;;;;;;;;;;1868477;75;26213;-48
2022/07/13 06:24:08;;;;;;;1.52;1.40;;;;;;;;;;1868065;74;26323;-49
2022/07/13 06:26:35;;;;;;;4.12;1.55;;;;;;;;;;1876650;75;26666;-53
2022/07/13 06:29:02;;;;;;;1.70;1.60;;;;;;;;;;1876701;75;26210;-53
2022/07/13 06:31:30;;;;;;;2.85;1.60;;;;;;;;;;1868807;75;26213;-53
2022/07/13 06:33:57;;;;;;;3.17;1.70;;;;;;;;;;1867375;75;26068;-49
2022/07/13 06:36:24;;;;;;;2.33;1.47;;;;;;;;;;1862145;76;26278;-47
2022/07/13 06:38:52;;;;;;;4.42;1.80;;;;;;;;;;1874303;75;26264;-59
2022/07/13 06:41:19;;;;;;;4.08;1.60;;;;;;;;;;1868643;75;26737;-48
2022/07/13 06:43:46;;;;;;;5.72;1.72;;;;;;;;;;1864939;75;26723;-46
2022/07/13 06:46:14;;;;;;;4.45;1.95;;;;;;;;;;1870476;75;26275;-61
2022/07/13 06:48:41;;;;;;;2.05;1.50;;;;;;;;;;1866864;75;26170;-48
2022/07/13 06:51:08;;;;;;;1.85;1.62;;;;;;;;;;1862963;75;26229;-52
2022/07/13 06:53:35;;;;;;;2.37;1.52;;;;;;;;;;1864344;75;26209;-60
2022/07/13 06:56:03;;;;;;;5.40;1.50;;;;;;;;;;1862944;75;26358;-52
2022/07/13 06:58:30;;;;;;;3.83;1.50;;;;;;;;;;1869113;75;26221;-55
2022/07/13 07:00:58;;;;;;;5.05;1.70;;;;;;;;;;1872493;75;26204;-50
2022/07/13 07:03:25;;;;;;;4.03;1.90;;;;;;;;;;1868724;75;26326;-47
2022/07/13 07:05:52;;;;;;;2.15;1.70;;;;;;;;;;1868677;76;26192;-56
2022/07/13 07:08:20;;;;;;;3.08;1.60;;;;;;;;;;1865576;75;26742;-49
2022/07/13 07:10:47;;;;;;;1.77;1.45;;;;;;;;;;1865089;75;26190;-46
2022/07/13 07:13:15;;;;;;;2.87;1.55;;;;;;;;;;1855362;75;26783;-55
2022/07/13 07:15:42;;;;;;;2.75;1.70;;;;;;;;;;1873862;75;26300;-49
2022/07/13 07:18:09;;;;;;;1.67;1.45;;;;;;;;;;1866382;75;26264;-47
2022/07/13 07:20:37;;;;;;;2.45;1.55;;;;;;;;;;1865005;76;26626;-46
2022/07/13 07:23:04;;;;;;;1.85;1.65;;;;;;;;;;1867567;76;26290;-46
2022/07/13 07:25:31;;;;;;;1.80;1.60;;;;;;;;;;1874336;75;26347;-61
2022/07/13 07:27:59;;;;;;;3.50;1.60;;;;;;;;;;1875576;75;26654;-51
2022/07/13 07:30:26;;;;;;;2.27;1.60;;;;;;;;;;1869152;75;26252;-49
2022/07/13 07:32:53;;;;;;;1.55;1.40;;;;;;;;;;1862675;75;26238;-61
2022/07/13 07:35:20;;;;;;;3.12;1.50;;;;;;;;;;1865868;75;26230;-54
2022/07/13 07:37:48;;;;;;;1.57;1.40;;;;;;;;;;1860960;74;27362;-56
2022/07/13 07:40:15;;;;;;;3.55;1.80;;;;;;;;;;1868671;74;26246;-49
2022/07/13 07:42:42;;;;;;;6.00;1.87;;;;;;;;;;1861278;75;26299;-49
2022/07/13 07:45:10;;;;;;;3.20;1.70;;;;;;;;;;1863433;75;25536;-52
2022/07/13 07:47:38;;;;;;;1.92;1.57;;;;;;;;;;1860666;75;26206;-48
2022/07/13 07:50:05;;;;;;;2.55;1.50;;;;;;;;;;1867401;75;26245;-50
2022/07/13 07:52:33;;;;;;;3.30;1.70;;;;;;;;;;1866339;75;26288;-58
2022/07/13 07:55:00;;;;;;;2.35;1.65;;;;;;;;;;1862121;75;26288;-48
2022/07/13 07:57:27;;;;;;;1.98;1.52;;;;;;;;;;1858668;75;26796;-45
2022/07/13 07:59:55;;;;;;;1.60;1.50;;;;;;;;;;1871771;75;26283;-59
2022/07/13 08:02:22;;;;;;;2.17;1.60;;;;;;;;;;1865129;75;26798;-50
2022/07/13 08:04:50;;;;;;;1.87;1.60;;;;;;;;;;1865449;75;27116;-50
2022/07/13 08:07:17;;;;;;;1.70;1.60;;;;;;;;;;1859275;75;26758;-57
2022/07/13 08:09:44;;;;;;;1.62;1.50;;;;;;;;;;1861669;75;26642;-51
2022/07/13 08:12:11;;;;;;;1.90;1.55;;;;;;;;;;1866867;75;26304;-51
2022/07/13 08:14:39;;;;;;;1.70;1.60;;;;;;;;;;1868688;76;26202;-50
2022/07/13 08:17:06;;;;;;;1.92;1.60;;;;;;;;;;1849252;76;26175;-45
2022/07/13 08:19:33;;;;;;;3.55;1.70;;;;;;;;;;1854689;76;26273;-55
2022/07/13 08:22:00;;;;;;;2.40;1.80;;;;;;;;;;1856579;75;26300;-53
2022/07/13 08:24:28;;;;;;;2.50;1.80;;;;;;;;;;1870039;75;26222;-47
2022/07/13 08:26:55;;;;;;;2.85;1.75;;;;;;;;;;1874069;75;26312;-49
2022/07/13 08:29:22;;;;;;;1.70;1.60;;;;;;;;;;1867636;75;26200;-49
2022/07/13 08:31:49;;;;;;;1.85;1.70;;;;;;;;;;1862978;75;26278;-46
2022/07/13 08:39:47;;;;;;;1.98;1.77;;;;;;;;;;1869102;75;26199;-56
2022/07/13 08:42:14;;;;;;;3.00;1.85;;;;;;;;;;1866321;75;26268;-48
2022/07/13 08:44:42;;;;;;;2.27;1.80;;;;;;;;;;1871540;75;26558;-45
2022/07/13 08:47:10;;;;;;;2.33;1.60;;;;;;;;;;1880937;75;26218;-45
2022/07/13 08:49:37;;;;;;;1.80;1.70;;;;;;;;;;1870574;75;26720;-48
2022/07/13 08:52:05;;;;;;;1.65;1.55;;;;;;;;;;1871672;75;26158;-57
2022/07/13 08:54:33;;;;;;;2.45;2.00;;;;;;;;;;1864106;75;26657;-45
2022/07/13 08:57:00;;;;;;;2.87;1.55;;;;;;;;;;1878310;75;26256;-51
2022/07/13 08:59:27;;;;;;;1.95;1.80;;;;;;;;;;1871822;75;26256;-57
2022/07/13 09:01:55;;;;;;;1.85;1.70;;;;;;;;;;1863646;75;26259;-46
2022/07/13 09:04:22;;;;;;;1.98;1.70;;;;;;;;;;1869371;75;26279;-55
2022/07/13 09:06:50;;;;;;;1.72;1.62;;;;;;;;;;1864784;75;26661;-51
2022/07/13 09:09:27;;;;;;;1.85;1.75;;;;;;;;;;1872658;75;26331;-44
2022/07/13 09:11:56;;;;;;;2.22;1.90;;;;;;;;;;1866006;76;26205;-46
2022/07/13 09:14:24;;;;;;;5.15;2.00;;;;;;;;;;1860062;75;26554;-45
2022/07/13 09:16:52;;;;;;;2.10;1.82;;;;;;;;;;1869654;75;26230;-58
2022/07/13 09:19:20;;;;;;;3.02;2.00;;;;;;;;;;1870950;75;26198;-58
2022/07/13 09:21:48;;;;;;;2.00;1.80;;;;;;;;;;1865843;75;26213;-53
2022/07/13 09:24:15;;;;;;;3.30;1.85;;;;;;;;;;1871487;75;26301;-52
2022/07/13 09:26:43;;;;;;;3.12;2.10;;;;;;;;;;1855573;75;27095;-46
2022/07/13 09:29:13;;;;;;;5.58;2.15;;;;;;;;;;1861962;75;26770;-57
2022/07/13 09:31:50;;;;;;;2.65;1.77;;;;;;;;;;1863444;75;26316;-50
2022/07/13 09:34:17;;;;;;;2.33;1.80;;;;;;;;;;1864982;75;26719;-46
2022/07/13 09:36:45;;;;;;;1.95;1.85;;;;;;;;;;1866422;75;26710;-51
2022/07/13 09:39:12;;;;;;;1.87;1.75;;;;;;;;;;1856119;75;26268;-54
2022/07/13 09:41:41;;;;;;;1.80;1.70;;;;;;;;;;1869424;75;26155;-46
2022/07/13 09:46:54;;;;;;;3.30;1.80;;;;;;;;;;1863217;75;26721;-55
2022/07/13 09:49:32;;;;;;;2.08;1.98;;;;;;;;;;1869212;75;26183;-63
2022/07/13 09:52:00;;;;;;;2.10;1.90;;;;;;;;;;1859509;75;26255;-48
2022/07/13 09:54:28;;;;;;;2.02;1.92;;;;;;;;;;1863560;75;26221;-53
2022/07/13 09:57:00;;;;;;;2.08;1.92;;;;;;;;;;1877292;75;26250;-51
2022/07/13 09:59:28;;;;;;;2.15;2.05;;;;;;;;;;1873175;75;26332;-60
2022/07/13 10:01:56;;;;;;;3.27;2.22;;;;;;;;;;1867133;75;26293;-46
2022/07/13 10:04:23;;;;;;;2.72;2.40;;;;;;;;;;1853987;75;26843;-51
2022/07/13 10:06:51;;;;;;;2.60;2.37;;;;;;;;;;1857745;75;26341;-57
2022/07/13 10:09:21;;;;;;;2.50;2.27;;;;;;;;;;1857955;75;26728;-49
2022/07/13 10:11:47;;;;;;;2.45;2.27;;;;;;;;;;1877491;75;26663;-60
2022/07/13 10:14:16;;;;;;;2.70;2.20;;;;;;;;;;1876446;75;26282;-46
2022/07/13 10:16:43;;;;;;;3.45;2.10;;;;;;;;;;1863012;75;27182;-53
2022/07/13 10:19:11;;;;;;;2.40;2.20;;;;;;;;;;1864664;75;26203;-55
2022/07/13 10:21:46;;;;;;;2.60;2.33;;;;;;;;;;1878781;75;26287;-44
2022/07/13 10:24:16;;;;;;;2.45;2.25;;;;;;;;;;1863104;75;26249;-55
2022/07/13 10:26:45;;;;;;;2.27;2.20;;;;;;;;;;1873589;75;26203;-51
2022/07/13 10:29:14;;;;;;;2.30;2.10;;;;;;;;;;1872893;75;26246;-61
2022/07/13 10:31:42;;;;;;;2.08;1.98;;;;;;;;;;1861143;75;26288;-53
2022/07/13 10:34:11;;;;;;;2.33;2.22;;;;;;;;;;1863058;75;26261;-49
2022/07/13 10:36:50;;;;;;;2.35;2.12;;;;;;;;;;1867750;75;26167;-49
2022/07/13 10:39:19;;;;;;;2.42;2.27;;;;;;;;;;1868325;75;26694;-62
2022/07/13 10:42:00;;;;;;;2.40;2.20;;;;;;;;;;1853297;75;26291;-52
2022/07/13 10:44:31;;;;;;;2.77;2.25;;;;;;;;;;1870889;75;26203;-47
2022/07/13 10:46:58;;;;;;;3.62;2.20;;;;;;;;;;1865516;75;26209;-46
2022/07/13 10:49:33;;;;;;;2.50;2.08;;;;;;;;;;1868763;75;26741;-47
2022/07/13 10:52:18;;;;;;;3.42;2.00;;;;;;;;;;1874063;76;26210;-45
2022/07/13 10:55:11;;;;;;;2.30;1.95;;;;;;;;;;1862020;75;26751;-41
2022/07/13 10:57:42;;;;;;;2.50;2.10;;;;;;;;;;1866518;75;27267;-50
2022/07/13 11:00:22;;;;;;;6.53;2.20;;;;;;;;;;1874114;75;26252;-54
2022/07/13 11:02:50;;;;;;;3.45;2.02;;;;;;;;;;1872155;75;26686;-41
2022/07/13 11:05:19;;;;;;;2.40;1.90;;;;;;;;;;1874671;74;27136;-42
2022/07/13 11:07:48;;;;;;;5.30;2.00;;;;;;;;;;1863084;75;26258;-48
2022/07/13 11:10:23;;;;;;;2.65;2.05;;;;;;;;;;1867041;75;26202;-47
2022/07/13 11:13:01;;;;;;;3.02;1.82;;;;;;;;;;1861832;75;26311;-45
2022/07/13 11:15:42;;;;;;;2.42;2.20;;;;;;;;;;1863270;75;26264;-56
2022/07/13 11:18:10;;;;;;;2.62;1.90;;;;;;;;;;1871165;75;26642;-56
2022/07/13 11:20:39;;;;;;;3.45;2.17;;;;;;;;;;1858171;75;26608;-46
2022/07/13 11:25:55;;;;;;;2.70;2.00;;;;;;;;;;1861844;75;26306;-40
2022/07/13 11:28:26;;;;;;;2.55;1.80;;;;;;;;;;1868442;75;26281;-46
2022/07/13 11:30:58;;;;;;;3.42;1.70;;;;;;;;;;1864242;75;26224;-46
2022/07/13 11:33:23;;;;;;;1.77;1.67;;;;;;;;;;1869480;75;26329;-47
2022/07/13 11:35:51;;;;;;;3.67;1.70;;;;;;;;;;1874108;75;26204;-45
2022/07/13 11:38:20;;;;;;;2.22;1.70;;;;;;;;;;1870477;75;26218;-54
2022/07/13 11:40:47;;;;;;;1.80;1.70;;;;;;;;;;1860503;75;26709;-48
2022/07/13 11:43:15;;;;;;;1.80;1.70;;;;;;;;;;1865244;75;26211;-46
2022/07/13 11:45:43;;;;;;;1.70;1.60;;;;;;;;;;1878629;75;26313;-59
2022/07/13 11:48:12;;;;;;;2.08;2.00;;;;;;;;;;1859499;75;26387;-43
2022/07/13 11:50:40;;;;;;;4.35;1.75;;;;;;;;;;1868631;75;26272;-57
2022/07/13 11:53:07;;;;;;;1.60;1.60;;;;;;;;;;1873149;75;26642;-55
2022/07/13 11:55:36;;;;;;;1.55;1.50;;;;;;;;;;1868899;75;26517;-44
2022/07/13 11:58:03;;;;;;;2.55;1.60;;;;;;;;;;1863041;75;26213;-57
2022/07/13 12:00:31;;;;;;;1.62;1.52;;;;;;;;;;1869692;75;26771;-52
2022/07/13 12:02:58;;;;;;;1.47;1.47;;;;;;;;;;1869921;75;26289;-42
2022/07/13 12:05:27;;;;;;;1.87;1.75;;;;;;;;;;1875628;75;26263;-48
2022/07/13 12:08:01;;;;;;;1.80;1.70;;;;;;;;;;1873811;75;26213;-41
2022/07/13 12:10:28;;;;;;;2.00;1.90;;;;;;;;;;1864449;75;26233;-59
2022/07/13 12:12:56;;;;;;;1.85;1.70;;;;;;;;;;1869846;75;26688;-43
2022/07/13 12:15:23;;;;;;;1.50;1.50;;;;;;;;;;1862006;75;26235;-42
2022/07/13 12:17:52;;;;;;;1.72;1.62;;;;;;;;;;1865413;75;26229;-57
2022/07/13 12:20:21;;;;;;;3.25;1.60;;;;;;;;;;1875956;75;26202;-44
2022/07/13 12:22:52;;;;;;;1.80;1.70;;;;;;;;;;1874328;75;26290;-46
2022/07/13 12:25:26;;;;;;;1.70;1.60;;;;;;;;;;1873695;75;26800;-46
2022/07/13 12:27:53;;;;;;;1.77;1.70;;;;;;;;;;1879507;76;26307;-55
2022/07/13 12:30:21;;;;;;;1.82;1.50;;;;;;;;;;1865969;75;26280;-41
2022/07/13 12:32:56;;;;;;;1.70;1.70;;;;;;;;;;1877894;75;26822;-41
2022/07/13 12:35:27;;;;;;;2.30;1.77;;;;;;;;;;1867055;75;26362;-40
2022/07/13 12:37:55;;;;;;;1.62;1.62;;;;;;;;;;1875041;75;26195;-44
2022/07/13 12:40:40;;;;;;;1.75;1.65;;;;;;;;;;1868939;75;26208;-45
2022/07/13 12:43:21;;;;;;;1.57;1.57;;;;;;;;;;1879301;76;26281;-46
2022/07/13 12:45:48;;;;;;;1.95;1.67;;;;;;;;;;1868848;75;26225;-47
2022/07/13 12:48:17;;;;;;;1.65;1.60;;;;;;;;;;1876479;75;26648;-52
2022/07/13 12:51:00;;;;;;;1.87;1.77;;;;;;;;;;1880539;75;26201;-48
2022/07/13 12:53:47;;;;;;;2.05;1.80;;;;;;;;;;1869153;75;26286;-42
2022/07/13 12:56:16;;;;;;;1.75;1.70;;;;;;;;;;1868147;75;26201;-44
2022/07/13 12:58:44;;;;;;;1.67;1.67;;;;;;;;;;1861408;76;26293;-40
2022/07/13 13:01:13;;;;;;;1.80;1.70;;;;;;;;;;1865316;75;26210;-42
2022/07/13 13:03:40;;;;;;;2.10;2.00;;;;;;;;;;1851881;76;26250;-45
2022/07/13 13:06:07;;;;;;;2.02;1.90;;;;;;;;;;1862168;75;26249;-43
2022/07/13 13:08:35;;;;;;;2.00;1.90;;;;;;;;;;1848225;76;26246;-47
2022/07/13 13:11:02;;;;;;;1.98;1.70;;;;;;;;;;1863849;75;26288;-43
2022/07/13 13:13:29;;;;;;;2.10;2.00;;;;;;;;;;1872301;75;26294;-43
2022/07/13 13:15:58;;;;;;;2.17;1.98;;;;;;;;;;1858161;75;26199;-58
2022/07/13 13:18:25;;;;;;;2.00;1.90;;;;;;;;;;1862842;76;26194;-43
2022/07/13 13:20:52;;;;;;;1.90;1.82;;;;;;;;;;1857973;75;26653;-40
2022/07/13 13:23:20;;;;;;;1.82;1.82;;;;;;;;;;1875951;74;26832;-43
2022/07/13 13:25:47;;;;;;;2.10;2.00;;;;;;;;;;1860772;75;27328;-61
2022/07/13 13:28:14;;;;;;;2.20;2.10;;;;;;;;;;1847727;76;26198;-45
2022/07/13 13:30:44;;;;;;;2.50;2.40;;;;;;;;;;1860691;76;26191;-47
2022/07/13 13:33:12;;;;;;;2.30;2.20;;;;;;;;;;1867437;75;26202;-44
2022/07/13 13:35:39;;;;;;;2.45;2.20;;;;;;;;;;1875366;75;26241;-44
2022/07/13 13:38:07;;;;;;;2.20;2.02;;;;;;;;;;1872462;74;26306;-46
2022/07/13 13:40:34;;;;;;;2.35;2.22;;;;;;;;;;1869826;75;26606;-41
2022/07/13 13:43:01;;;;;;;2.30;2.20;;;;;;;;;;1868547;75;26245;-46
2022/07/13 13:45:29;;;;;;;2.60;2.40;;;;;;;;;;1876177;75;26261;-51
2022/07/13 13:47:56;;;;;;;3.12;2.65;;;;;;;;;;1861582;75;26224;-55
2022/07/13 13:50:23;;;;;;;2.45;2.35;;;;;;;;;;1861387;75;26210;-49
2022/07/13 13:52:51;;;;;;;2.60;2.40;;;;;;;;;;1861392;75;26352;-45
2022/07/13 13:55:18;;;;;;;2.70;2.50;;;;;;;;;;1873179;76;26902;-45
2022/07/13 13:57:46;;;;;;;3.92;2.50;;;;;;;;;;1867726;75;26226;-46
2022/07/13 14:00:14;;;;;;;2.80;2.60;;;;;;;;;;1870953;75;27241;-52
2022/07/13 14:02:41;;;;;;;2.70;2.60;;;;;;;;;;1869450;75;26229;-46
2022/07/13 14:05:09;;;;;;;2.60;2.50;;;;;;;;;;1868100;75;26631;-44
2022/07/13 14:07:36;;;;;;;2.40;2.30;;;;;;;;;;1866929;75;26269;-53
2022/07/13 14:10:05;;;;;;;2.30;2.20;;;;;;;;;;1867922;75;26632;-55
2022/07/13 14:12:32;;;;;;;2.37;2.17;;;;;;;;;;1878394;75;26642;-45
2022/07/13 14:14:59;;;;;;;3.40;2.20;;;;;;;;;;1877653;75;26689;-45
2022/07/13 14:17:27;;;;;;;2.90;1.98;;;;;;;;;;1876126;75;26210;-43
2022/07/13 14:19:54;;;;;;;2.27;2.12;;;;;;;;;;1867764;75;26209;-43
2022/07/13 14:22:21;;;;;;;2.35;2.22;;;;;;;;;;1866692;75;26217;-52
2022/07/13 14:24:49;;;;;;;2.10;2.00;;;;;;;;;;1870989;75;26299;-50
2022/07/13 14:27:16;;;;;;;1.98;1.92;;;;;;;;;;1866783;75;26294;-43
2022/07/13 14:29:44;;;;;;;2.17;2.00;;;;;;;;;;1870636;75;26272;-52
2022/07/13 14:32:11;;;;;;;2.92;1.90;;;;;;;;;;1877700;75;26815;-45
2022/07/13 14:34:38;;;;;;;2.75;2.15;;;;;;;;;;1869063;75;26255;-43
2022/07/13 14:37:07;;;;;;;2.00;1.87;;;;;;;;;;1876898;76;26175;-47
2022/07/13 14:39:35;;;;;;;1.90;1.90;;;;;;;;;;1873720;75;26268;-40
2022/07/13 14:42:02;;;;;;;1.55;1.55;;;;;;;;;;1868586;75;26217;-42
2022/07/13 14:44:30;;;;;;;1.90;1.80;;;;;;;;;;1877016;76;26190;-47
2022/07/13 14:46:58;;;;;;;2.08;1.90;;;;;;;;;;1868328;75;26322;-59
2022/07/13 14:49:25;;;;;;;1.90;1.80;;;;;;;;;;1871447;75;26258;-45
2022/07/13 14:51:52;;;;;;;1.90;1.80;;;;;;;;;;1863611;75;26276;-43
2022/07/13 14:54:20;;;;;;;1.70;1.70;;;;;;;;;;1872748;75;26249;-48
2022/07/13 14:56:47;;;;;;;2.37;2.27;;;;;;;;;;1867338;75;26245;-47
2022/07/13 14:59:14;;;;;;;2.05;1.98;;;;;;;;;;1871416;75;26201;-42